createdAt,value
2018-08-31T00:00:26.060Z,26.9
2018-08-31T00:01:15.904Z,26.9
2018-08-31T00:02:05.420Z,26.9
2018-08-31T00:02:56.059Z,26.9
2018-08-31T00:03:46.307Z,26.9
2018-08-31T00:04:35.892Z,26.9
2018-08-31T00:05:25.659Z,26.9
2018-08-31T00:06:15.694Z,26.9
2018-08-31T00:07:06.605Z,26.8
2018-08-31T00:07:56.667Z,26.8
2018-08-31T00:08:45.610Z,26.8
2018-08-31T00:09:36.795Z,26.8
2018-08-31T00:10:27.223Z,26.8
2018-08-31T00:11:16.907Z,26.8
2018-08-31T00:12:05.847Z,26.8
2018-08-31T00:31:31.883Z,26.8
2018-08-31T00:32:20.592Z,26.8
2018-08-31T00:33:10.425Z,26.8
2018-08-31T00:34:01.336Z,26.8
2018-08-31T00:34:50.791Z,26.8
2018-08-31T00:35:41.447Z,26.8
2018-08-31T00:36:31.201Z,26.8
2018-08-31T00:37:21.287Z,26.8
2018-08-31T00:38:11.332Z,26.8
2018-08-31T00:39:01.412Z,26.8
2018-08-31T00:39:50.915Z,26.7
2018-08-31T00:40:40.990Z,26.8
2018-08-31T00:41:31.538Z,26.8
2018-08-31T00:42:21.990Z,26.8
2018-08-31T00:43:11.687Z,26.8
2018-08-31T00:44:01.828Z,26.8
2018-08-31T00:44:51.255Z,26.7
2018-08-31T00:45:42.440Z,26.7
2018-08-31T00:46:32.004Z,26.7
2018-08-31T00:47:21.744Z,26.7
2018-08-31T00:48:12.414Z,26.7
2018-08-31T00:49:02.202Z,26.8
2018-08-31T00:49:51.985Z,26.7
2018-08-31T00:50:42.357Z,26.7
2018-08-31T00:51:31.792Z,26.8
2018-08-31T00:52:22.966Z,26.7
2018-08-31T00:53:12.501Z,26.7
2018-08-31T00:54:02.571Z,26.7
2018-08-31T00:54:52.604Z,26.7
2018-08-31T00:55:42.676Z,26.8
2018-08-31T00:56:32.194Z,26.7
2018-08-31T00:57:22.529Z,26.8
2018-08-31T00:58:12.611Z,26.7
2018-08-31T00:59:03.277Z,26.7
2018-08-31T00:59:52.416Z,26.7
2018-08-31T01:00:43.351Z,26.7
2018-08-31T01:01:33.096Z,26.7
2018-08-31T01:02:22.859Z,26.7
2018-08-31T01:03:12.764Z,26.7
2018-08-31T01:04:03.623Z,26.7
2018-08-31T01:04:53.403Z,26.7
2018-08-31T01:05:42.558Z,26.7
2018-08-31T01:06:33.751Z,26.7
2018-08-31T01:07:23.249Z,26.7
2018-08-31T01:08:13.048Z,26.7
2018-08-31T01:09:03.988Z,26.7
2018-08-31T01:09:53.752Z,26.7
2018-08-31T01:10:43.510Z,26.7
2018-08-31T01:11:33.606Z,26.7
2018-08-31T01:12:24.478Z,26.7
2018-08-31T01:13:14.598Z,26.7
2018-08-31T01:14:04.120Z,26.7
2018-08-31T01:14:54.231Z,26.7
2018-08-31T01:15:44.228Z,26.7
2018-08-31T01:16:34.310Z,26.7
2018-08-31T01:17:24.066Z,26.7
2018-08-31T01:18:14.672Z,26.6
2018-08-31T01:19:04.475Z,26.7
2018-08-31T01:19:54.240Z,26.6
2018-08-31T01:20:44.598Z,26.7
2018-08-31T01:21:34.377Z,26.7
2018-08-31T01:22:24.988Z,26.7
2018-08-31T01:23:15.067Z,26.6
2018-08-31T01:24:04.592Z,26.7
2018-08-31T01:24:55.264Z,26.6
2018-08-31T01:25:45.312Z,26.7
2018-08-31T01:26:34.765Z,26.7
2018-08-31T01:27:25.405Z,26.6
2018-08-31T01:28:15.226Z,26.6
2018-08-31T01:29:05.244Z,26.6
2018-08-31T01:29:55.328Z,26.7
2018-08-31T01:30:45.068Z,26.6
2018-08-31T01:31:35.445Z,26.6
2018-08-31T01:32:24.914Z,26.6
2018-08-31T01:33:15.834Z,26.6
2018-08-31T01:34:06.184Z,26.6
2018-08-31T01:34:55.714Z,26.6
2018-08-31T01:35:45.831Z,26.6
2018-08-31T01:36:35.837Z,26.6
2018-08-31T01:37:25.881Z,26.6
2018-08-31T01:38:16.264Z,26.6
2018-08-31T01:39:06.064Z,26.6
2018-08-31T01:39:55.844Z,26.6
2018-08-31T01:40:45.581Z,26.6
2018-08-31T01:41:35.686Z,26.6
2018-08-31T01:42:26.006Z,26.6
2018-08-31T01:43:16.355Z,26.6
2018-08-31T01:44:06.985Z,26.6
2018-08-31T01:44:56.443Z,26.6
2018-08-31T01:45:46.234Z,26.6
2018-08-31T01:46:36.653Z,26.6
2018-08-31T01:47:26.363Z,26.6
2018-08-31T01:48:16.706Z,26.6
2018-08-31T01:49:07.061Z,26.6
2018-08-31T01:49:56.249Z,26.6
2018-08-31T01:50:46.336Z,26.6
2018-08-31T01:51:36.991Z,26.6
2018-08-31T01:52:27.304Z,26.6
2018-08-31T01:53:17.103Z,26.6
2018-08-31T01:54:07.528Z,26.6
2018-08-31T01:54:56.954Z,26.6
2018-08-31T01:55:47.280Z,26.6
2018-08-31T01:56:37.068Z,26.6
2018-08-31T01:57:27.170Z,26.6
2018-08-31T01:58:17.478Z,26.6
2018-08-31T01:59:07.565Z,26.6
2018-08-31T01:59:57.350Z,26.6
2018-08-31T02:00:47.428Z,26.6
2018-08-31T02:01:37.748Z,26.6
2018-08-31T02:02:27.550Z,26.6
2018-08-31T02:03:17.874Z,26.6
2018-08-31T02:04:08.859Z,26.6
2018-08-31T02:04:57.452Z,26.6
2018-08-31T02:05:48.330Z,26.6
2018-08-31T02:06:38.415Z,26.6
2018-08-31T02:07:28.223Z,26.6
2018-08-31T02:08:18.225Z,26.6
2018-08-31T02:09:08.327Z,26.6
2018-08-31T02:09:58.731Z,26.6
2018-08-31T02:10:47.892Z,26.6
2018-08-31T02:11:37.955Z,26.6
2018-08-31T02:12:28.027Z,26.6
2018-08-31T02:13:18.352Z,26.6
2018-08-31T02:14:08.432Z,26.6
2018-08-31T02:14:59.059Z,26.6
2018-08-31T02:15:49.075Z,26.6
2018-08-31T02:16:39.164Z,26.6
2018-08-31T02:17:28.678Z,26.6
2018-08-31T02:18:19.014Z,26.6
2018-08-31T02:19:08.261Z,26.6
2018-08-31T02:19:59.411Z,26.6
2018-08-31T02:20:48.948Z,26.6
2018-08-31T02:21:39.418Z,26.6
2018-08-31T02:22:29.152Z,26.6
2018-08-31T02:23:19.532Z,26.6
2018-08-31T02:24:08.923Z,26.6
2018-08-31T02:24:58.993Z,26.6
2018-08-31T02:25:49.916Z,26.6
2018-08-31T02:26:40.264Z,26.6
2018-08-31T02:27:29.736Z,26.6
2018-08-31T02:28:19.516Z,26.6
2018-08-31T02:29:09.571Z,26.6
2018-08-31T02:30:00.195Z,26.6
2018-08-31T02:30:49.151Z,26.6
2018-08-31T02:31:40.349Z,26.6
2018-08-31T02:32:30.121Z,26.6
2018-08-31T02:33:20.191Z,26.6
2018-08-31T02:34:10.544Z,26.6
2018-08-31T02:35:00.026Z,26.6
2018-08-31T02:35:50.097Z,26.6
2018-08-31T02:36:40.481Z,26.6
2018-08-31T02:37:30.534Z,26.6
2018-08-31T02:38:20.848Z,26.6
2018-08-31T02:39:11.105Z,26.6
2018-08-31T02:40:00.703Z,26.6
2018-08-31T02:40:51.042Z,26.6
2018-08-31T02:41:40.812Z,26.6
2018-08-31T02:42:30.613Z,26.6
2018-08-31T02:43:20.658Z,26.6
2018-08-31T02:44:11.047Z,26.6
2018-08-31T02:45:01.318Z,26.6
2018-08-31T02:45:51.168Z,26.6
2018-08-31T02:46:41.202Z,26.6
2018-08-31T02:47:31.522Z,26.6
2018-08-31T02:48:21.362Z,26.6
2018-08-31T02:49:11.133Z,26.6
2018-08-31T02:50:01.173Z,26.6
2018-08-31T02:50:51.759Z,26.6
2018-08-31T02:51:41.292Z,26.6
2018-08-31T02:52:31.678Z,26.6
2018-08-31T02:53:21.425Z,26.6
2018-08-31T02:54:12.130Z,26.6
2018-08-31T02:55:02.135Z,26.6
2018-08-31T02:55:51.389Z,26.6
2018-08-31T02:56:41.722Z,26.6
2018-08-31T02:57:32.340Z,26.6
2018-08-31T02:58:22.124Z,26.6
2018-08-31T02:59:12.544Z,26.6
2018-08-31T03:00:02.524Z,26.6
2018-08-31T03:00:52.541Z,26.6
2018-08-31T03:01:42.436Z,26.6
2018-08-31T03:02:32.404Z,26.6
2018-08-31T03:03:21.632Z,26.5
2018-08-31T03:04:12.560Z,26.6
2018-08-31T03:05:02.898Z,26.6
2018-08-31T03:05:52.681Z,26.6
2018-08-31T03:06:42.714Z,26.6
2018-08-31T03:07:32.259Z,26.6
2018-08-31T03:08:22.362Z,26.6
2018-08-31T03:09:12.967Z,26.6
2018-08-31T03:10:03.085Z,26.6
2018-08-31T03:10:53.382Z,26.6
2018-08-31T03:11:44.913Z,26.6
2018-08-31T03:12:33.264Z,26.6
2018-08-31T03:13:23.054Z,26.6
2018-08-31T03:14:13.327Z,26.6
2018-08-31T03:15:03.384Z,26.6
2018-08-31T03:15:53.762Z,26.6
2018-08-31T03:16:43.779Z,26.6
2018-08-31T03:17:33.894Z,26.6
2018-08-31T03:18:23.081Z,26.6
2018-08-31T03:19:13.832Z,26.6
2018-08-31T03:20:03.629Z,26.6
2018-08-31T03:20:53.837Z,26.6
2018-08-31T03:21:44.482Z,26.6
2018-08-31T03:22:34.245Z,26.6
2018-08-31T03:23:24.299Z,26.6
2018-08-31T03:24:14.110Z,26.6
2018-08-31T03:25:04.187Z,26.6
2018-08-31T03:25:54.303Z,26.6
2018-08-31T03:26:44.284Z,26.6
2018-08-31T03:27:34.076Z,26.6
2018-08-31T03:28:24.707Z,26.5
2018-08-31T03:29:14.475Z,26.6
2018-08-31T03:30:04.605Z,26.6
2018-08-31T03:30:54.653Z,26.6
2018-08-31T03:31:43.857Z,26.6
2018-08-31T03:32:34.591Z,26.5
2018-08-31T03:33:24.850Z,26.6
2018-08-31T03:34:14.855Z,26.5
2018-08-31T03:35:04.787Z,26.6
2018-08-31T03:35:54.949Z,26.6
2018-08-31T03:36:45.249Z,26.5
2018-08-31T03:37:34.586Z,26.6
2018-08-31T03:38:25.486Z,26.6
2018-08-31T03:39:15.557Z,26.5
2018-08-31T03:40:05.324Z,26.5
2018-08-31T03:40:55.635Z,26.5
2018-08-31T03:41:45.182Z,26.5
2018-08-31T03:42:34.636Z,26.6
2018-08-31T03:43:25.369Z,26.5
2018-08-31T03:44:15.056Z,26.6
2018-08-31T03:45:05.712Z,26.6
2018-08-31T03:45:56.270Z,26.6
2018-08-31T03:46:45.516Z,26.5
2018-08-31T03:47:35.889Z,26.6
2018-08-31T03:48:25.979Z,26.5
2018-08-31T03:49:15.744Z,26.5
2018-08-31T03:50:06.094Z,26.5
2018-08-31T03:50:55.830Z,26.5
2018-08-31T03:51:46.543Z,26.5
2018-08-31T03:52:36.306Z,26.5
2018-08-31T03:53:25.763Z,26.5
2018-08-31T03:54:16.678Z,26.6
2018-08-31T03:55:06.773Z,26.5
2018-08-31T03:55:56.801Z,26.5
2018-08-31T03:56:46.271Z,26.5
2018-08-31T03:57:36.915Z,26.6
2018-08-31T03:58:26.130Z,26.5
2018-08-31T03:59:16.755Z,26.5
2018-08-31T04:00:06.857Z,26.5
2018-08-31T04:00:57.258Z,26.5
2018-08-31T04:01:46.990Z,26.5
2018-08-31T04:02:36.742Z,26.5
2018-08-31T04:03:27.450Z,26.5
2018-08-31T04:04:17.460Z,26.5
2018-08-31T04:05:07.268Z,26.5
2018-08-31T04:05:57.317Z,26.5
2018-08-31T04:06:47.630Z,26.5
2018-08-31T04:07:37.387Z,26.5
2018-08-31T04:08:27.772Z,26.6
2018-08-31T04:09:17.032Z,26.5
2018-08-31T04:10:07.935Z,26.5
2018-08-31T04:10:57.955Z,26.5
2018-08-31T04:11:47.993Z,26.5
2018-08-31T04:12:37.782Z,26.5
2018-08-31T04:13:27.309Z,26.5
2018-08-31T04:14:18.260Z,26.5
2018-08-31T04:15:09.016Z,26.5
2018-08-31T04:15:57.780Z,26.5
2018-08-31T04:16:47.224Z,26.5
2018-08-31T04:17:37.344Z,26.5
2018-08-31T04:18:28.559Z,26.5
2018-08-31T04:19:18.636Z,26.5
2018-08-31T04:20:08.642Z,26.5
2018-08-31T04:20:58.726Z,26.5
2018-08-31T04:21:47.936Z,26.5
2018-08-31T04:22:38.639Z,26.5
2018-08-31T04:23:28.364Z,26.5
2018-08-31T04:24:18.751Z,26.5
2018-08-31T04:25:08.575Z,26.5
2018-08-31T04:25:58.089Z,26.5
2018-08-31T04:26:48.621Z,26.5
2018-08-31T04:27:38.674Z,26.5
2018-08-31T04:28:28.660Z,26.5
2018-08-31T04:29:19.226Z,26.5
2018-08-31T04:30:09.015Z,26.5
2018-08-31T04:30:58.746Z,26.5
2018-08-31T04:31:48.687Z,26.5
2018-08-31T04:32:39.094Z,26.5
2018-08-31T04:33:28.860Z,26.5
2018-08-31T04:34:19.545Z,26.5
2018-08-31T04:35:08.996Z,26.5
2018-08-31T04:35:59.026Z,26.5
2018-08-31T04:36:49.641Z,26.5
2018-08-31T04:37:38.893Z,26.5
2018-08-31T04:38:30.018Z,26.5
2018-08-31T04:39:19.605Z,26.5
2018-08-31T04:40:09.386Z,26.6
2018-08-31T04:40:58.598Z,26.5
2018-08-31T04:41:50.365Z,26.5
2018-08-31T04:42:40.299Z,26.5
2018-08-31T05:00:17.529Z,26.5
2018-08-31T05:01:08.006Z,26.5
2018-08-31T05:01:58.596Z,26.5
2018-08-31T05:02:48.921Z,26.5
2018-08-31T05:03:38.537Z,26.6
2018-08-31T05:04:28.636Z,26.5
2018-08-31T05:05:18.445Z,26.6
2018-08-31T05:06:08.933Z,26.5
2018-08-31T05:06:59.236Z,26.5
2018-08-31T05:07:49.020Z,26.5
2018-08-31T05:08:38.097Z,26.5
2018-08-31T05:09:28.901Z,26.6
2018-08-31T05:10:19.220Z,26.5
2018-08-31T05:11:08.731Z,26.5
2018-08-31T05:11:59.071Z,26.6
2018-08-31T05:12:49.688Z,26.6
2018-08-31T05:13:39.480Z,26.5
2018-08-31T05:14:29.098Z,26.6
2018-08-31T05:15:19.656Z,26.5
2018-08-31T05:16:10.903Z,26.6
2018-08-31T05:16:59.780Z,26.5
2018-08-31T05:17:49.831Z,26.6
2018-08-31T05:18:40.124Z,26.6
2018-08-31T05:19:29.621Z,26.5
2018-08-31T05:20:20.263Z,26.6
2018-08-31T05:21:09.865Z,26.6
2018-08-31T05:22:00.595Z,26.6
2018-08-31T05:22:51.449Z,26.6
2018-08-31T05:23:40.735Z,26.6
2018-08-31T05:24:30.323Z,26.6
2018-08-31T05:25:20.736Z,26.6
2018-08-31T05:26:10.740Z,26.6
2018-08-31T05:27:00.493Z,26.6
2018-08-31T05:27:50.522Z,26.6
2018-08-31T05:28:40.732Z,26.6
2018-08-31T05:29:30.775Z,26.6
2018-08-31T05:30:20.831Z,26.6
2018-08-31T05:31:11.171Z,26.6
2018-08-31T05:32:01.138Z,26.6
2018-08-31T05:32:51.298Z,26.6
2018-08-31T05:33:40.821Z,26.6
2018-08-31T05:34:29.767Z,26.6
2018-08-31T05:35:20.113Z,26.6
2018-08-31T05:36:11.260Z,26.6
2018-08-31T05:37:00.025Z,26.6
2018-08-31T05:37:50.577Z,26.6
2018-08-31T05:38:41.202Z,26.6
2018-08-31T05:39:30.714Z,26.6
2018-08-31T05:40:21.085Z,26.6
2018-08-31T05:41:11.045Z,26.6
2018-08-31T05:42:01.907Z,26.6
2018-08-31T05:42:51.220Z,26.6
2018-08-31T05:43:41.779Z,26.6
2018-08-31T05:44:31.570Z,26.6
2018-08-31T05:45:20.866Z,26.6
2018-08-31T05:46:11.719Z,26.6
2018-08-31T05:47:01.507Z,26.6
2018-08-31T05:47:50.432Z,26.5
2018-08-31T05:48:42.511Z,26.6
2018-08-31T05:49:31.651Z,26.6
2018-08-31T05:50:22.326Z,26.6
2018-08-31T05:51:12.630Z,26.6
2018-08-31T05:52:02.161Z,26.5
2018-08-31T05:52:51.896Z,26.6
2018-08-31T05:53:43.281Z,26.6
2018-08-31T05:54:32.648Z,26.6
2018-08-31T05:55:22.701Z,26.6
2018-08-31T05:56:12.461Z,26.6
2018-08-31T05:57:02.807Z,26.6
2018-08-31T05:57:52.627Z,26.9
2018-08-31T05:58:42.108Z,32.9
2018-08-31T05:59:33.259Z,34.4
2018-08-31T06:00:22.868Z,36.8
2018-08-31T06:01:13.728Z,38.2
2018-08-31T06:02:03.802Z,38.3
2018-08-31T06:02:53.606Z,37.2
2018-08-31T06:03:43.341Z,36.3
2018-08-31T06:04:33.665Z,35.9
2018-08-31T06:05:23.453Z,35.6
2018-08-31T06:06:12.674Z,35.5
2018-08-31T06:07:03.848Z,35.3
2018-08-31T06:07:53.420Z,35.2
2018-08-31T06:08:43.457Z,35.1
2018-08-31T06:09:33.750Z,34.9
2018-08-31T06:10:23.924Z,34.7
2018-08-31T06:11:13.602Z,34.6
2018-08-31T06:12:05.915Z,34.4
2018-08-31T06:12:53.527Z,34.3
2018-08-31T06:13:44.092Z,34.1
2018-08-31T06:14:33.902Z,34
2018-08-31T06:15:23.954Z,33.8
2018-08-31T06:16:14.317Z,36.7
2018-08-31T06:17:04.064Z,37.8
2018-08-31T06:17:54.157Z,39.4
2018-08-31T06:18:44.267Z,40.4
2018-08-31T06:19:34.579Z,40.8
2018-08-31T06:20:24.337Z,40.8
2018-08-31T06:21:15.488Z,40.8
2018-08-31T06:22:04.575Z,40.9
2018-08-31T06:22:54.286Z,41.1
2018-08-31T06:23:44.887Z,41.4
2018-08-31T06:24:34.949Z,41.6
2018-08-31T06:25:24.981Z,41.8
2018-08-31T06:26:15.070Z,41.9
2018-08-31T06:27:04.824Z,42
2018-08-31T06:27:54.142Z,42.1
2018-08-31T06:28:44.549Z,42.2
2018-08-31T06:29:34.576Z,42.3
2018-08-31T06:30:24.112Z,42.4
2018-08-31T06:31:14.973Z,42.6
2018-08-31T06:32:05.016Z,42.7
2018-08-31T06:32:55.911Z,42.8
2018-08-31T06:33:44.988Z,42.9
2018-08-31T06:34:35.536Z,43
2018-08-31T06:35:25.491Z,43.1
2018-08-31T06:36:15.658Z,43.2
2018-08-31T06:37:04.898Z,43.3
2018-08-31T06:37:55.668Z,43.4
2018-08-31T06:38:45.307Z,43.5
2018-08-31T06:39:36.100Z,43.6
2018-08-31T06:40:25.603Z,43.7
2018-08-31T06:41:15.966Z,43.8
2018-08-31T06:42:06.028Z,43.9
2018-08-31T06:42:56.630Z,44.1
2018-08-31T06:43:46.192Z,44.1
2018-08-31T06:44:36.208Z,44.2
2018-08-31T06:45:26.568Z,44.3
2018-08-31T06:46:16.627Z,44.4
2018-08-31T06:47:06.675Z,44.5
2018-08-31T06:47:56.702Z,44.6
2018-08-31T06:48:46.582Z,44.7
2018-08-31T06:49:36.880Z,44.8
2018-08-31T06:50:27.195Z,44.9
2018-08-31T06:51:16.377Z,44.9
2018-08-31T06:52:07.110Z,45
2018-08-31T06:52:57.143Z,45.1
2018-08-31T06:53:46.650Z,45.2
2018-08-31T06:54:37.287Z,45.3
2018-08-31T06:55:26.339Z,45.4
2018-08-31T06:56:17.397Z,45.5
2018-08-31T06:57:07.751Z,45.6
2018-08-31T06:57:57.237Z,45.7
2018-08-31T06:58:47.592Z,45.8
2018-08-31T06:59:37.379Z,45.9
2018-08-31T07:00:27.984Z,46
2018-08-31T07:01:17.512Z,46.1
2018-08-31T07:02:08.110Z,46.2
2018-08-31T07:02:57.757Z,46.3
2018-08-31T07:03:48.728Z,46.4
2018-08-31T07:04:37.488Z,46.5
2018-08-31T07:05:27.554Z,46.6
2018-08-31T07:06:18.136Z,46.7
2018-08-31T07:07:07.178Z,46.8
2018-08-31T07:07:58.814Z,46.9
2018-08-31T07:08:49.079Z,47
2018-08-31T07:09:39.754Z,47.1
2018-08-31T07:10:28.218Z,47.2
2018-08-31T07:11:18.851Z,47.3
2018-08-31T07:12:07.874Z,47.4
2018-08-31T07:12:58.181Z,47.6
2018-08-31T07:13:48.731Z,47.6
2018-08-31T07:14:38.808Z,47.7
2018-08-31T07:15:28.598Z,47.8
2018-08-31T07:16:19.486Z,47.9
2018-08-31T07:17:08.753Z,48.1
2018-08-31T07:17:58.531Z,48.1
2018-08-31T07:18:49.426Z,48.3
2018-08-31T07:19:39.784Z,48.3
2018-08-31T07:20:28.443Z,48.4
2018-08-31T07:21:18.859Z,48.6
2018-08-31T07:22:09.119Z,48.7
2018-08-31T07:22:59.224Z,48.8
2018-08-31T07:23:49.825Z,48.9
2018-08-31T07:24:39.602Z,49
2018-08-31T07:25:28.889Z,49.1
2018-08-31T07:26:20.256Z,49.2
2018-08-31T07:27:09.233Z,49.3
2018-08-31T07:27:59.572Z,49.4
2018-08-31T07:28:49.926Z,49.6
2018-08-31T07:29:40.272Z,49.6
2018-08-31T07:30:29.525Z,49.8
2018-08-31T07:31:20.689Z,49.9
2018-08-31T07:32:09.792Z,49.9
2018-08-31T07:32:59.992Z,50.1
2018-08-31T07:33:49.513Z,50.2
2018-08-31T07:34:40.690Z,50.3
2018-08-31T07:35:30.210Z,50.4
2018-08-31T07:36:22.119Z,50.5
2018-08-31T07:37:10.635Z,50.6
2018-08-31T07:38:00.945Z,50.8
2018-08-31T07:38:50.782Z,50.9
2018-08-31T07:39:40.600Z,50.9
2018-08-31T07:40:29.723Z,51.1
2018-08-31T07:41:20.642Z,51.2
2018-08-31T07:42:11.012Z,51.3
2018-08-31T07:43:00.835Z,51.4
2018-08-31T07:43:51.389Z,51.5
2018-08-31T07:44:40.927Z,51.6
2018-08-31T07:45:30.932Z,51.8
2018-08-31T07:46:21.257Z,51.9
2018-08-31T07:48:01.312Z,52.1
2018-08-31T07:48:51.219Z,52.2
2018-08-31T07:49:41.316Z,52.3
2018-08-31T07:51:21.125Z,52.5
2018-08-31T07:52:11.741Z,52.6
2018-08-31T07:53:02.399Z,52.7
2018-08-31T07:53:53.021Z,52.8
2018-08-31T07:54:42.446Z,52.9
2018-08-31T07:55:32.332Z,53.1
2018-08-31T07:56:21.878Z,53.1
2018-08-31T07:57:12.442Z,53.2
2018-08-31T07:58:01.954Z,53.3
2018-08-31T07:58:51.781Z,53.4
2018-08-31T07:59:42.596Z,53.5
2018-08-31T08:00:31.871Z,53.6
2018-08-31T08:01:22.719Z,53.8
2018-08-31T08:02:11.941Z,53.8
2018-08-31T08:03:01.819Z,54
2018-08-31T08:03:51.845Z,54.1
2018-08-31T08:04:41.918Z,54.2
2018-08-31T08:05:33.265Z,54.3
2018-08-31T08:06:22.684Z,54.4
2018-08-31T08:07:12.991Z,54.4
2018-08-31T08:08:02.444Z,54.6
2018-08-31T08:08:53.064Z,54.7
2018-08-31T08:09:42.061Z,54.8
2018-08-31T08:10:32.625Z,54.9
2018-08-31T08:11:22.121Z,54.9
2018-08-31T08:12:12.980Z,55.1
2018-08-31T08:13:03.146Z,55.2
2018-08-31T08:13:53.178Z,55.3
2018-08-31T08:14:43.712Z,55.4
2018-08-31T08:15:33.898Z,55.4
2018-08-31T08:16:24.121Z,55.5
2018-08-31T08:17:12.666Z,55.6
2018-08-31T08:18:03.212Z,55.8
2018-08-31T08:18:53.275Z,55.8
2018-08-31T08:19:44.708Z,55.9
2018-08-31T08:20:33.807Z,56
2018-08-31T08:21:24.278Z,56.1
2018-08-31T08:22:13.847Z,56.2
2018-08-31T08:23:04.394Z,56.3
2018-08-31T08:23:53.640Z,56.4
2018-08-31T08:24:44.043Z,56.4
2018-08-31T08:25:34.643Z,56.6
2018-08-31T08:26:24.642Z,56.6
2018-08-31T08:27:14.784Z,56.7
2018-08-31T08:28:04.290Z,56.8
2018-08-31T08:28:54.605Z,56.9
2018-08-31T08:29:44.738Z,57
2018-08-31T08:30:34.758Z,57
2018-08-31T08:31:24.567Z,57.1
2018-08-31T08:32:14.604Z,57.3
2018-08-31T08:33:04.180Z,57.3
2018-08-31T08:33:53.974Z,57.4
2018-08-31T08:34:44.517Z,57.4
2018-08-31T08:35:35.452Z,57.6
2018-08-31T08:36:24.919Z,57.6
2018-08-31T08:37:15.021Z,57.7
2018-08-31T08:38:54.937Z,57.9
2018-08-31T08:39:45.419Z,57.9
2018-08-31T08:40:35.567Z,58
2018-08-31T08:41:25.609Z,58.1
2018-08-31T08:42:17.157Z,58.1
2018-08-31T08:43:05.722Z,58.2
2018-08-31T08:43:56.053Z,58.3
2018-08-31T08:44:45.267Z,58.4
2018-08-31T08:45:36.241Z,58.4
2018-08-31T08:46:25.699Z,58.5
2018-08-31T08:48:05.632Z,58.6
2018-08-31T08:48:55.775Z,58.7
2018-08-31T08:49:46.501Z,58.8
2018-08-31T08:50:35.801Z,58.9
2018-08-31T08:51:26.387Z,58.9
2018-08-31T08:52:15.893Z,58.9
2018-08-31T08:53:06.461Z,59.1
2018-08-31T08:53:57.100Z,59.1
2018-08-31T08:54:46.839Z,59.2
2018-08-31T08:55:36.713Z,59.3
2018-08-31T08:56:26.740Z,59.3
2018-08-31T08:57:16.584Z,59.4
2018-08-31T08:58:06.881Z,59.4
2018-08-31T09:14:49.636Z,60.6
2018-08-31T09:15:38.676Z,60.7
2018-08-31T09:16:29.081Z,60.8
2018-08-31T09:17:19.641Z,60.8
2018-08-31T09:18:09.450Z,60.9
2018-08-31T09:18:59.813Z,61
2018-08-31T09:19:50.096Z,61
2018-08-31T09:20:39.883Z,61.1
2018-08-31T09:21:29.964Z,61.2
2018-08-31T09:22:19.791Z,61.3
2018-08-31T09:23:09.786Z,61.3
2018-08-31T09:23:59.645Z,61.4
2018-08-31T09:24:51.279Z,61.5
2018-08-31T09:25:40.044Z,61.5
2018-08-31T09:26:30.332Z,61.6
2018-08-31T09:27:20.230Z,61.7
2018-08-31T09:28:10.471Z,61.8
2018-08-31T09:29:00.235Z,61.8
2018-08-31T09:29:50.313Z,61.8
2018-08-31T09:30:40.408Z,61.9
2018-08-31T09:31:31.045Z,61.9
2018-08-31T09:32:20.286Z,62
2018-08-31T09:33:10.366Z,62.1
2018-08-31T09:34:01.210Z,62.1
2018-08-31T09:34:51.238Z,62.2
2018-08-31T09:35:41.600Z,62.3
2018-08-31T09:36:30.284Z,62.3
2018-08-31T09:37:20.385Z,62.4
2018-08-31T09:38:10.982Z,62.4
2018-08-31T09:39:00.498Z,62.5
2018-08-31T09:39:51.656Z,62.6
2018-08-31T09:40:41.654Z,62.6
2018-08-31T09:41:31.584Z,62.7
2018-08-31T09:42:21.602Z,62.8
2018-08-31T09:43:11.176Z,62.8
2018-08-31T09:44:01.609Z,62.9
2018-08-31T09:44:51.010Z,62.9
2018-08-31T09:45:41.281Z,63
2018-08-31T09:46:31.887Z,63.1
2018-08-31T09:47:21.436Z,63.1
2018-08-31T09:48:11.745Z,63.1
2018-08-31T09:49:01.824Z,63.2
2018-08-31T09:49:53.357Z,63.3
2018-08-31T09:50:42.486Z,63.4
2018-08-31T09:51:32.303Z,63.4
2018-08-31T09:52:22.359Z,63.5
2018-08-31T09:53:12.468Z,63.6
2018-08-31T09:54:02.219Z,63.6
2018-08-31T09:54:51.476Z,63.7
2018-08-31T09:55:43.156Z,63.8
2018-08-31T09:56:31.821Z,63.8
2018-08-31T09:58:51.271Z,63.9
2018-08-31T09:59:24.296Z,64
2018-08-31T10:00:14.881Z,64.1
2018-08-31T10:01:05.698Z,64.1
2018-08-31T10:01:55.231Z,64.2
2018-08-31T10:02:45.092Z,64.2
2018-08-31T10:03:35.088Z,64.3
2018-08-31T10:04:25.472Z,64.3
2018-08-31T10:05:15.853Z,64.4
2018-08-31T10:06:04.753Z,64.4
2018-08-31T10:06:54.513Z,64.5
2018-08-31T10:07:45.167Z,64.6
2018-08-31T10:08:35.515Z,64.6
2018-08-31T10:09:25.715Z,64.7
2018-08-31T10:10:15.883Z,64.7
2018-08-31T10:11:05.952Z,64.8
2018-08-31T10:11:55.193Z,64.8
2018-08-31T10:12:46.133Z,64.9
2018-08-31T10:13:36.161Z,64.9
2018-08-31T10:14:26.268Z,65
2018-08-31T10:15:16.032Z,65.1
2018-08-31T10:16:06.332Z,65.1
2018-08-31T10:16:56.517Z,65.3
2018-08-31T10:17:46.517Z,65.3
2018-08-31T10:18:36.378Z,65.4
2018-08-31T10:19:27.012Z,65.4
2018-08-31T10:20:16.700Z,65.4
2018-08-31T10:21:06.970Z,65.4
2018-08-31T10:21:56.584Z,65.5
2018-08-31T10:22:46.641Z,65.6
2018-08-31T10:23:36.976Z,65.6
2018-08-31T10:24:27.264Z,65.6
2018-08-31T10:25:17.084Z,65.7
2018-08-31T10:26:07.714Z,65.8
2018-08-31T10:26:56.258Z,65.8
2018-08-31T10:27:47.277Z,65.9
2018-08-31T10:28:36.490Z,65.9
2018-08-31T10:29:27.437Z,66
2018-08-31T10:30:17.934Z,66.1
2018-08-31T10:31:07.696Z,66.1
2018-08-31T10:31:57.538Z,66.2
2018-08-31T10:32:47.398Z,66.3
2018-08-31T10:33:37.176Z,66.4
2018-08-31T10:34:27.863Z,66.4
2018-08-31T10:35:17.302Z,66.4
2018-08-31T10:36:08.162Z,66.5
2018-08-31T10:36:57.985Z,66.6
2018-08-31T10:37:48.138Z,66.6
2018-08-31T10:38:38.133Z,66.6
2018-08-31T10:39:27.865Z,66.7
2018-08-31T10:40:18.036Z,66.8
2018-08-31T10:41:08.057Z,66.8
2018-08-31T10:41:58.088Z,66.9
2018-08-31T10:42:47.593Z,66.9
2018-08-31T10:43:37.115Z,66.9
2018-08-31T10:44:28.233Z,67.1
2018-08-31T10:45:18.373Z,67.1
2018-08-31T10:46:08.162Z,67.1
2018-08-31T10:46:59.047Z,67.2
2018-08-31T10:47:48.845Z,67.3
2018-08-31T10:48:38.665Z,67.3
2018-08-31T10:49:28.681Z,67.4
2018-08-31T10:50:19.045Z,67.4
2018-08-31T10:51:08.790Z,67.4
2018-08-31T10:51:59.417Z,67.4
2018-08-31T10:52:48.702Z,67.6
2018-08-31T10:53:38.482Z,67.6
2018-08-31T10:54:29.632Z,67.6
2018-08-31T10:55:19.450Z,67.7
2018-08-31T10:56:09.213Z,67.8
2018-08-31T10:56:59.330Z,67.8
2018-08-31T10:57:49.335Z,67.9
2018-08-31T10:58:39.402Z,67.9
2018-08-31T10:59:29.846Z,67.9
2018-08-31T11:00:19.072Z,67.9
2018-08-31T11:01:09.429Z,68
2018-08-31T11:01:59.950Z,68.1
2018-08-31T11:02:50.036Z,68.1
2018-08-31T11:03:40.574Z,68.2
2018-08-31T11:04:29.611Z,68.3
2018-08-31T11:05:18.828Z,68.3
2018-08-31T11:06:10.291Z,68.3
2018-08-31T11:07:00.381Z,68.4
2018-08-31T11:07:50.461Z,68.4
2018-08-31T11:08:40.458Z,68.4
2018-08-31T11:09:30.019Z,68.4
2018-08-31T11:10:20.599Z,68.5
2018-08-31T11:11:10.426Z,68.5
2018-08-31T11:12:00.171Z,68.6
2018-08-31T11:12:52.558Z,68.6
2018-08-31T11:13:40.566Z,68.7
2018-08-31T11:14:30.629Z,68.7
2018-08-31T11:15:22.470Z,68.7
2018-08-31T11:16:11.045Z,68.8
2018-08-31T11:17:01.147Z,68.8
2018-08-31T11:17:50.874Z,68.9
2018-08-31T11:18:41.425Z,68.9
2018-08-31T11:19:30.725Z,68.9
2018-08-31T11:20:20.828Z,68.9
2018-08-31T11:21:11.175Z,69
2018-08-31T11:22:00.993Z,69.1
2018-08-31T11:22:51.605Z,69.1
2018-08-31T11:23:41.705Z,69.1
2018-08-31T11:24:31.713Z,69.1
2018-08-31T11:25:21.237Z,69.2
2018-08-31T11:26:11.265Z,69.3
2018-08-31T11:27:01.612Z,69.3
2018-08-31T11:27:51.787Z,69.3
2018-08-31T11:28:41.460Z,69.4
2018-08-31T11:29:31.833Z,69.4
2018-08-31T11:30:22.181Z,69.4
2018-08-31T11:31:11.672Z,69.5
2018-08-31T11:32:02.296Z,69.6
2018-08-31T11:32:52.384Z,69.6
2018-08-31T11:33:42.418Z,69.6
2018-08-31T11:35:03.232Z,69.6
2018-08-31T11:35:51.482Z,69.7
2018-08-31T11:36:30.427Z,69.8
2018-08-31T11:37:17.085Z,69.8
2018-08-31T11:37:52.464Z,69.8
2018-08-31T11:38:58.797Z,69.8
2018-08-31T11:39:32.991Z,69.9
2018-08-31T11:40:22.941Z,69.9
2018-08-31T11:41:13.104Z,69.9
2018-08-31T11:42:03.137Z,69.9
2018-08-31T11:43:22.167Z,69.9
2018-08-31T11:43:42.997Z,70
2018-08-31T11:44:33.244Z,70
2018-08-31T11:45:23.034Z,70
2018-08-31T11:46:13.156Z,70.1
2018-08-31T11:47:03.181Z,70.1
2018-08-31T11:48:08.683Z,70.1
2018-08-31T11:48:43.856Z,70.1
2018-08-31T11:49:33.617Z,70.1
2018-08-31T11:50:23.159Z,70.1
2018-08-31T11:51:13.169Z,70.2
2018-08-31T11:52:03.574Z,70.2
2018-08-31T11:52:53.927Z,70.2
2018-08-31T11:53:43.148Z,70.3
2018-08-31T11:54:34.078Z,70.3
2018-08-31T11:55:25.176Z,70.3
2018-08-31T11:56:13.864Z,70.3
2018-08-31T11:57:03.439Z,70.3
2018-08-31T11:57:54.068Z,70.3
2018-08-31T11:58:44.144Z,70.3
2018-08-31T11:59:34.146Z,70.3
2018-08-31T12:00:24.238Z,70.4
2018-08-31T12:01:14.589Z,70.4
2018-08-31T12:02:05.979Z,70.4
2018-08-31T12:02:53.846Z,70.5
2018-08-31T12:03:44.996Z,70.5